createdAt,value
2022-10-06T00:00:47.416Z,99.90
2022-10-06T00:03:14.590Z,99.90
2022-10-06T00:05:41.625Z,99.90
2022-10-06T00:08:10.288Z,99.90
2022-10-06T00:10:37.290Z,99.90
2022-10-06T00:13:04.089Z,99.90
2022-10-06T00:15:31.991Z,99.90
2022-10-06T00:17:58.968Z,99.90
2022-10-06T00:20:26.391Z,99.90
2022-10-06T00:22:53.191Z,99.90
2022-10-06T00:25:20.859Z,99.90
2022-10-06T00:27:49.411Z,99.90
2022-10-06T00:30:19.607Z,99.90
2022-10-06T00:32:50.491Z,99.90
2022-10-06T00:35:17.314Z,99.90
2022-10-06T00:37:44.116Z,99.90
2022-10-06T00:40:11.121Z,99.90
2022-10-06T00:42:53.423Z,99.90
2022-10-06T00:45:23.527Z,99.90
2022-10-06T00:47:50.338Z,99.90
2022-10-06T00:50:17.215Z,99.90
2022-10-06T00:52:44.189Z,99.90
2022-10-06T00:55:11.074Z,99.90
2022-10-06T00:57:39.354Z,99.90
2022-10-06T01:00:07.131Z,99.90
2022-10-06T01:02:38.054Z,99.90
2022-10-06T01:05:05.600Z,99.90
2022-10-06T01:07:32.588Z,99.90
2022-10-06T01:09:59.642Z,99.90
2022-10-06T01:12:27.352Z,99.90
2022-10-06T01:14:54.252Z,99.90
2022-10-06T01:17:23.603Z,99.90
2022-10-06T01:20:00.236Z,99.90
2022-10-06T01:22:30.240Z,99.90
2022-10-06T01:24:57.450Z,99.90
2022-10-06T01:27:25.628Z,99.90
2022-10-06T01:29:53.900Z,99.90
2022-10-06T01:32:21.639Z,99.90
2022-10-06T01:34:48.500Z,99.90
2022-10-06T01:37:15.791Z,99.90
2022-10-06T01:39:43.213Z,99.90
2022-10-06T01:42:10.470Z,99.90
2022-10-06T01:44:37.871Z,99.90
2022-10-06T01:47:05.991Z,99.90
2022-10-06T01:49:33.075Z,99.90
2022-10-06T01:52:00.406Z,99.90
2022-10-06T01:54:27.278Z,99.90
2022-10-06T01:56:55.311Z,99.90
2022-10-06T01:59:22.296Z,99.90
2022-10-06T02:01:49.195Z,99.90
2022-10-06T02:04:16.053Z,99.90
2022-10-06T02:06:44.061Z,99.90
2022-10-06T02:09:10.895Z,99.90
2022-10-06T02:11:39.783Z,99.90
2022-10-06T02:14:07.096Z,99.90
2022-10-06T02:16:35.232Z,99.90
2022-10-06T02:19:02.194Z,99.90
2022-10-06T02:21:29.018Z,99.90
2022-10-06T02:23:55.874Z,99.90
2022-10-06T02:26:22.826Z,99.90
2022-10-06T02:28:51.094Z,99.90
2022-10-06T02:31:21.978Z,99.90
2022-10-06T02:33:48.920Z,99.90
2022-10-06T02:36:17.971Z,99.90
2022-10-06T02:38:44.967Z,99.90
2022-10-06T02:41:11.857Z,99.90
2022-10-06T02:43:39.512Z,99.90
2022-10-06T02:46:08.289Z,99.90
2022-10-06T02:48:35.641Z,99.90
2022-10-06T02:51:09.571Z,99.90
2022-10-06T02:53:37.738Z,99.90
2022-10-06T02:56:05.423Z,99.90
2022-10-06T02:58:33.069Z,99.90
2022-10-06T03:01:05.915Z,99.90
2022-10-06T03:03:34.942Z,99.90
2022-10-06T03:06:02.567Z,99.90
2022-10-06T03:08:32.074Z,99.90
2022-10-06T03:11:03.270Z,99.90
2022-10-06T03:13:30.650Z,99.90
2022-10-06T03:15:57.779Z,99.90
2022-10-06T03:18:24.936Z,99.90
2022-10-06T03:20:52.039Z,99.90
2022-10-06T03:23:18.926Z,99.90
2022-10-06T03:25:54.618Z,99.90
2022-10-06T03:28:21.555Z,99.90
2022-10-06T03:30:48.498Z,99.90
2022-10-06T03:33:16.417Z,99.90
2022-10-06T03:35:43.325Z,99.90
2022-10-06T03:38:10.279Z,99.90
2022-10-06T03:40:37.163Z,99.90
2022-10-06T03:43:04.478Z,99.90
2022-10-06T03:45:32.167Z,99.90
2022-10-06T03:47:59.275Z,99.90
2022-10-06T03:50:26.506Z,99.90
2022-10-06T03:52:53.500Z,99.90
2022-10-06T03:55:20.547Z,99.90
2022-10-06T03:57:48.714Z,99.90
2022-10-06T04:00:15.578Z,99.90
2022-10-06T04:02:43.318Z,99.90
2022-10-06T04:05:10.258Z,99.90
2022-10-06T04:07:37.105Z,99.90
2022-10-06T04:10:04.082Z,99.90
2022-10-06T04:12:30.929Z,99.90
2022-10-06T04:15:00.132Z,99.90
2022-10-06T04:17:27.888Z,99.90
2022-10-06T04:19:55.418Z,99.90
2022-10-06T04:22:22.235Z,99.90
2022-10-06T04:24:49.128Z,99.90
2022-10-06T04:27:28.163Z,99.90
2022-10-06T04:30:07.607Z,99.90
2022-10-06T04:32:35.254Z,99.90
2022-10-06T04:35:03.006Z,99.90
2022-10-06T04:37:30.182Z,99.90
2022-10-06T04:39:58.041Z,99.90
2022-10-06T04:42:25.464Z,99.90
2022-10-06T04:44:52.468Z,99.90
2022-10-06T04:47:19.295Z,99.90
2022-10-06T04:49:47.414Z,99.90
2022-10-06T04:52:14.521Z,99.90
2022-10-06T04:54:41.896Z,99.90
2022-10-06T04:57:09.275Z,99.90
2022-10-06T04:59:55.316Z,99.90
2022-10-06T05:02:23.346Z,99.90
2022-10-06T05:04:53.147Z,99.90
2022-10-06T05:07:22.304Z,99.90
2022-10-06T05:09:49.282Z,99.90
2022-10-06T05:12:17.435Z,99.90
2022-10-06T05:14:46.797Z,99.90
2022-10-06T05:17:14.119Z,99.90
2022-10-06T05:19:41.139Z,99.90
2022-10-06T05:22:08.330Z,99.90
2022-10-06T05:24:35.782Z,99.90
2022-10-06T05:27:04.016Z,99.90
2022-10-06T05:29:34.131Z,99.90
2022-10-06T05:32:02.602Z,99.90
2022-10-06T05:34:29.709Z,99.90
2022-10-06T05:36:56.496Z,99.90
2022-10-06T05:39:23.349Z,99.90
2022-10-06T05:41:54.503Z,99.90
2022-10-06T05:44:21.586Z,99.90
2022-10-06T05:46:48.520Z,99.90
2022-10-06T05:49:15.646Z,99.90
2022-10-06T05:51:47.712Z,99.90
2022-10-06T05:54:19.563Z,99.90
2022-10-06T05:56:46.480Z,99.90
2022-10-06T05:59:14.204Z,99.90
2022-10-06T06:01:42.239Z,99.90
2022-10-06T06:04:41.456Z,99.90
2022-10-06T06:07:09.201Z,99.90
2022-10-06T06:09:36.938Z,99.90
2022-10-06T06:12:04.333Z,99.90
2022-10-06T06:14:56.208Z,99.90
2022-10-06T06:17:26.441Z,99.90
2022-10-06T06:19:53.366Z,99.90
2022-10-06T06:22:21.202Z,99.90
2022-10-06T06:24:50.123Z,99.60
2022-10-06T06:27:17.337Z,99.50
2022-10-06T06:29:45.695Z,99.40
2022-10-06T06:32:12.701Z,99.30
2022-10-06T06:34:40.991Z,99.10
2022-10-06T06:37:15.023Z,98.40
2022-10-06T06:39:42.456Z,97.60
2022-10-06T06:42:09.369Z,96.80
2022-10-06T06:44:39.568Z,95.80
2022-10-06T06:47:19.939Z,94.30
2022-10-06T06:49:49.003Z,93.00
2022-10-06T06:52:16.275Z,91.80
2022-10-06T06:54:43.224Z,90.50
2022-10-06T06:57:13.744Z,88.70
2022-10-06T06:59:40.920Z,86.50
2022-10-06T07:02:11.883Z,83.40
2022-10-06T07:04:43.870Z,80.70
2022-10-06T07:07:13.611Z,77.80
2022-10-06T07:09:41.460Z,75.00
2022-10-06T07:12:11.615Z,72.80
2022-10-06T07:15:02.754Z,71.00
2022-10-06T07:17:50.842Z,68.10
2022-10-06T07:20:36.751Z,65.00
2022-10-06T07:23:22.968Z,62.70
2022-10-06T07:25:53.114Z,61.80
2022-10-06T07:28:21.026Z,59.60
2022-10-06T07:30:47.982Z,58.60
2022-10-06T07:33:19.356Z,57.90
2022-10-06T07:35:47.680Z,56.90
2022-10-06T07:38:18.689Z,56.10
2022-10-06T07:43:47.615Z,53.70
2022-10-06T07:46:16.266Z,51.70
2022-10-06T07:48:53.368Z,52.60
2022-10-06T07:51:20.337Z,52.60
2022-10-06T07:53:50.875Z,53.00
2022-10-06T07:56:26.900Z,53.30
2022-10-06T07:58:58.507Z,53.10
2022-10-06T08:01:27.443Z,52.60
2022-10-06T08:03:54.361Z,52.60
2022-10-06T08:06:23.564Z,53.50
2022-10-06T08:08:53.376Z,54.30
2022-10-06T08:11:21.005Z,53.90
2022-10-06T08:13:48.415Z,53.80
2022-10-06T08:16:17.041Z,52.90
2022-10-06T08:18:48.140Z,50.40
2022-10-06T08:21:19.463Z,49.30
2022-10-06T08:23:47.584Z,50.20
2022-10-06T08:26:15.423Z,48.00
2022-10-06T08:28:46.098Z,46.70
2022-10-06T08:31:15.531Z,46.30
2022-10-06T08:33:43.139Z,44.80
2022-10-06T08:36:11.508Z,44.40
2022-10-06T08:38:38.837Z,44.10
2022-10-06T08:41:21.217Z,42.60
2022-10-06T08:43:54.550Z,41.90
2022-10-06T08:46:24.663Z,41.80
2022-10-06T08:48:51.925Z,40.40
2022-10-06T08:51:19.781Z,40.50
2022-10-06T08:54:04.544Z,40.30
2022-10-06T08:56:36.654Z,39.60
2022-10-06T08:59:04.467Z,39.70
2022-10-06T09:01:33.261Z,40.20
2022-10-06T09:04:05.155Z,40.00
2022-10-06T09:06:38.135Z,41.10
2022-10-06T09:09:27.783Z,40.20
2022-10-06T09:11:54.575Z,40.80
2022-10-06T09:14:26.840Z,40.10
2022-10-06T09:16:55.379Z,39.30
2022-10-06T09:19:24.800Z,39.20
2022-10-06T09:21:53.281Z,39.80
2022-10-06T09:24:26.048Z,40.10
2022-10-06T09:26:53.469Z,40.30
2022-10-06T09:29:20.364Z,39.90
2022-10-06T09:31:51.180Z,39.90
2022-10-06T09:34:45.734Z,39.50
2022-10-06T09:37:13.671Z,40.10
2022-10-06T09:39:41.915Z,40.10
2022-10-06T09:42:13.577Z,40.00
2022-10-06T09:44:48.178Z,39.10
2022-10-06T09:47:33.084Z,38.30
2022-10-06T09:50:03.943Z,38.10
2022-10-06T09:52:30.767Z,37.60
2022-10-06T09:55:10.117Z,37.90
2022-10-06T09:57:37.398Z,37.30
2022-10-06T10:00:05.347Z,37.90
2022-10-06T10:02:40.974Z,37.70
2022-10-06T10:05:18.891Z,38.70
2022-10-06T10:07:48.071Z,38.10
2022-10-06T10:10:17.688Z,38.20
2022-10-06T10:12:51.264Z,37.80
2022-10-06T10:15:18.059Z,37.60
2022-10-06T10:17:48.276Z,36.80
2022-10-06T10:20:24.312Z,36.60
2022-10-06T10:22:52.238Z,35.50
2022-10-06T10:25:34.161Z,36.80
2022-10-06T10:28:17.465Z,36.90
2022-10-06T10:30:50.064Z,37.80
2022-10-06T10:33:26.579Z,37.60
2022-10-06T10:35:54.296Z,37.30
2022-10-06T10:38:24.834Z,37.30
2022-10-06T10:40:55.479Z,37.40
2022-10-06T10:43:35.974Z,38.20
2022-10-06T10:46:11.122Z,38.30
2022-10-06T10:48:51.351Z,37.30
2022-10-06T10:51:30.524Z,37.80
2022-10-06T10:54:00.462Z,38.30
2022-10-06T10:56:27.407Z,37.10
2022-10-06T10:58:56.218Z,37.50
2022-10-06T11:01:30.707Z,37.60
2022-10-06T11:03:58.440Z,37.50
2022-10-06T11:06:37.364Z,37.40
2022-10-06T11:09:07.059Z,37.80
2022-10-06T11:11:37.883Z,37.90
2022-10-06T11:14:10.884Z,37.20
2022-10-06T11:16:44.126Z,36.70
2022-10-06T11:19:16.828Z,35.90
2022-10-06T11:21:52.907Z,35.90
2022-10-06T11:24:25.917Z,36.30
2022-10-06T11:27:10.984Z,36.60
2022-10-06T11:29:53.164Z,36.40
2022-10-06T11:32:38.601Z,35.90
2022-10-06T11:35:19.641Z,35.60
2022-10-06T11:37:49.033Z,35.60
2022-10-06T11:40:28.372Z,36.20
2022-10-06T11:42:55.831Z,37.10
2022-10-06T11:45:26.998Z,36.70
2022-10-06T11:48:00.170Z,36.90
2022-10-06T11:50:34.679Z,36.60
2022-10-06T11:53:01.500Z,37.10
2022-10-06T11:55:29.114Z,37.20
2022-10-06T11:58:29.783Z,37.60
2022-10-06T12:00:56.273Z,37.10
2022-10-06T12:03:29.542Z,36.90
2022-10-06T12:05:57.199Z,37.00
2022-10-06T12:08:37.453Z,37.30
2022-10-06T12:11:24.561Z,38.80
2022-10-06T12:14:44.576Z,38.70
2022-10-06T12:17:11.359Z,39.40
2022-10-06T12:19:38.957Z,39.20
2022-10-06T12:22:22.395Z,39.60
2022-10-06T12:24:52.062Z,39.50
2022-10-06T12:27:25.736Z,39.90
2022-10-06T12:29:53.083Z,40.10
2022-10-06T12:32:32.260Z,39.90
2022-10-06T12:35:08.189Z,39.30
2022-10-06T12:37:34.979Z,38.90
2022-10-06T12:40:20.643Z,39.70
2022-10-06T12:42:47.469Z,39.10
2022-10-06T12:45:16.608Z,39.10
2022-10-06T12:47:43.637Z,38.40
2022-10-06T12:50:30.848Z,38.00
2022-10-06T12:53:09.058Z,37.10
2022-10-06T12:55:42.127Z,37.90
2022-10-06T12:58:28.572Z,37.90
2022-10-06T13:01:05.364Z,37.80
2022-10-06T13:03:32.354Z,38.10
2022-10-06T13:06:02.467Z,37.30
2022-10-06T13:08:33.372Z,37.90
2022-10-06T13:11:19.737Z,37.70
2022-10-06T13:13:48.238Z,37.90
2022-10-06T13:16:16.104Z,38.20
2022-10-06T13:18:43.064Z,38.50
2022-10-06T13:21:14.513Z,38.90
2022-10-06T13:23:41.515Z,39.40
2022-10-06T13:26:16.994Z,39.40
2022-10-06T13:28:43.757Z,39.80
2022-10-06T13:31:31.395Z,40.20
2022-10-06T13:34:07.341Z,40.50
2022-10-06T13:36:35.553Z,40.60
2022-10-06T13:39:14.596Z,40.90
2022-10-06T13:41:49.443Z,41.20
2022-10-06T13:44:26.974Z,40.30
2022-10-06T13:46:55.444Z,40.00
2022-10-06T13:49:23.943Z,39.70
2022-10-06T13:51:52.113Z,39.50
2022-10-06T13:54:31.969Z,40.60
2022-10-06T13:56:59.001Z,41.70
2022-10-06T13:59:32.926Z,42.40
2022-10-06T14:02:02.485Z,42.80
2022-10-06T14:04:29.405Z,42.90
2022-10-06T14:06:57.010Z,42.60
2022-10-06T14:09:25.450Z,42.10
2022-10-06T14:11:54.007Z,41.60
2022-10-06T14:14:21.004Z,42.30
2022-10-06T14:16:49.911Z,42.60
2022-10-06T14:19:29.394Z,42.90
2022-10-06T14:21:56.399Z,43.30
2022-10-06T14:24:23.855Z,43.50
2022-10-06T14:26:50.830Z,43.90
2022-10-06T14:29:18.726Z,43.70
2022-10-06T14:31:45.955Z,43.90
2022-10-06T14:34:16.493Z,44.30
2022-10-06T14:36:45.302Z,44.90
2022-10-06T14:39:13.733Z,44.90
2022-10-06T14:41:40.598Z,45.00
2022-10-06T14:44:12.486Z,45.60
2022-10-06T14:46:40.288Z,46.20
2022-10-06T14:49:07.921Z,46.50
2022-10-06T14:51:37.083Z,46.70
2022-10-06T14:54:04.726Z,47.20
2022-10-06T14:56:32.615Z,47.30
2022-10-06T14:59:05.300Z,47.40
2022-10-06T15:01:33.347Z,47.70
2022-10-06T15:04:01.428Z,48.70
2022-10-06T15:06:46.855Z,48.20
2022-10-06T15:09:13.748Z,48.60
2022-10-06T15:11:40.933Z,49.60
2022-10-06T15:14:11.607Z,49.00
2022-10-06T15:16:40.790Z,49.40
2022-10-06T15:19:09.134Z,49.90
2022-10-06T15:21:39.076Z,50.30
2022-10-06T15:24:06.567Z,50.70
2022-10-06T15:26:52.471Z,50.80
2022-10-06T15:29:19.314Z,51.00
2022-10-06T15:31:54.530Z,51.20
2022-10-06T15:34:31.659Z,51.70
2022-10-06T15:36:58.474Z,52.20
2022-10-06T15:39:30.054Z,52.80
2022-10-06T15:41:57.328Z,53.30
2022-10-06T15:44:24.229Z,53.90
2022-10-06T15:46:52.494Z,54.20
2022-10-06T15:49:20.335Z,54.70
2022-10-06T15:51:49.105Z,55.20
2022-10-06T15:54:20.361Z,55.70
2022-10-06T15:56:51.944Z,56.30
2022-10-06T15:59:23.749Z,56.60
2022-10-06T16:01:59.869Z,57.00
2022-10-06T16:04:31.220Z,57.50
2022-10-06T16:06:58.194Z,58.00
2022-10-06T16:09:26.087Z,58.50
2022-10-06T16:11:53.544Z,58.90
2022-10-06T16:14:20.518Z,59.20
2022-10-06T16:16:47.652Z,59.70
2022-10-06T16:19:15.547Z,60.00
2022-10-06T16:21:42.880Z,60.80
2022-10-06T16:24:10.597Z,61.30
2022-10-06T16:26:37.491Z,62.20
2022-10-06T16:29:04.877Z,62.90
2022-10-06T16:31:32.130Z,63.30
2022-10-06T16:33:59.023Z,64.00
2022-10-06T16:36:25.954Z,64.30
2022-10-06T16:38:53.680Z,64.70
2022-10-06T16:41:21.007Z,65.00
2022-10-06T16:43:48.551Z,65.30
2022-10-06T16:46:22.756Z,65.90
2022-10-06T16:48:50.606Z,66.00
2022-10-06T16:51:18.630Z,66.70
2022-10-06T16:53:52.758Z,66.90
2022-10-06T16:56:23.783Z,67.50
2022-10-06T16:58:53.914Z,68.00
2022-10-06T17:01:24.824Z,68.90
2022-10-06T17:04:06.534Z,69.10
2022-10-06T17:06:39.209Z,69.20
2022-10-06T17:09:08.294Z,70.00
2022-10-06T17:11:35.946Z,70.20
2022-10-06T17:14:02.929Z,71.80
2022-10-06T17:16:30.996Z,72.00
2022-10-06T17:18:58.083Z,71.70
2022-10-06T17:21:44.898Z,72.10
2022-10-06T17:24:12.235Z,72.40
2022-10-06T17:26:39.959Z,72.40
2022-10-06T17:29:08.429Z,72.60
2022-10-06T17:31:39.593Z,72.80
2022-10-06T17:34:11.386Z,73.20
2022-10-06T17:36:42.215Z,73.10
2022-10-06T17:39:11.363Z,73.40
2022-10-06T17:41:40.225Z,73.50
2022-10-06T17:44:08.443Z,73.70
2022-10-06T17:46:38.774Z,73.90
2022-10-06T17:49:09.972Z,73.90
2022-10-06T17:51:38.111Z,74.00
2022-10-06T17:54:06.336Z,74.30
2022-10-06T17:56:35.039Z,74.40
2022-10-06T17:59:03.551Z,74.50
2022-10-06T18:01:32.565Z,74.50
2022-10-06T18:04:00.307Z,74.90
2022-10-06T18:06:28.769Z,75.20
2022-10-06T18:08:57.447Z,75.40
2022-10-06T18:11:36.001Z,75.30
2022-10-06T18:14:07.465Z,75.50
2022-10-06T18:16:39.129Z,75.70
2022-10-06T18:19:07.436Z,75.80
2022-10-06T18:21:38.830Z,75.80
2022-10-06T18:24:06.862Z,75.90
2022-10-06T18:26:38.230Z,76.10
2022-10-06T18:29:05.839Z,76.00
2022-10-06T18:31:32.734Z,76.10
2022-10-06T18:36:09.234Z,76.30
2022-10-06T18:36:50.570Z,76.30
2022-10-06T18:39:17.380Z,76.30
2022-10-06T18:41:45.227Z,76.40
2022-10-06T18:44:12.043Z,76.30
2022-10-06T18:46:57.510Z,76.40
2022-10-06T18:49:24.791Z,76.50
2022-10-06T18:51:57.940Z,76.50
2022-10-06T18:54:30.132Z,76.70
2022-10-06T18:56:57.203Z,76.80
2022-10-06T18:59:26.709Z,76.90
2022-10-06T19:01:55.205Z,77.00
2022-10-06T19:04:22.849Z,77.10
2022-10-06T19:06:53.755Z,77.10
2022-10-06T19:09:22.190Z,77.40
2022-10-06T19:11:52.298Z,77.40
2022-10-06T19:14:20.295Z,77.50
2022-10-06T19:16:48.628Z,77.40
2022-10-06T19:19:17.326Z,77.50
2022-10-06T19:21:45.142Z,77.60
2022-10-06T19:24:13.025Z,77.60
2022-10-06T19:26:43.745Z,77.70
2022-10-06T19:29:13.776Z,77.90
2022-10-06T19:31:42.164Z,78.00
2022-10-06T19:34:11.742Z,78.30
2022-10-06T19:36:39.447Z,78.30
2022-10-06T19:39:07.850Z,78.60
2022-10-06T19:41:53.488Z,78.50
2022-10-06T19:44:20.307Z,78.60
2022-10-06T19:46:47.165Z,78.50
2022-10-06T19:49:13.997Z,78.60
2022-10-06T19:51:41.253Z,78.50
2022-10-06T19:54:08.978Z,78.70
2022-10-06T19:56:35.772Z,78.80
2022-10-06T19:59:03.203Z,78.60
2022-10-06T20:01:31.263Z,78.70
2022-10-06T20:03:58.617Z,78.70
2022-10-06T20:06:26.511Z,78.70
2022-10-06T20:08:55.579Z,78.70
2022-10-06T20:11:22.411Z,78.80
2022-10-06T20:13:49.559Z,78.90
2022-10-06T20:16:18.641Z,78.60
2022-10-06T20:18:46.626Z,78.80
2022-10-06T20:21:15.458Z,78.80
2022-10-06T20:24:02.542Z,78.50
2022-10-06T20:26:31.040Z,78.50
2022-10-06T20:28:58.681Z,78.90
2022-10-06T20:31:30.097Z,78.80
2022-10-06T20:33:58.602Z,79.00
2022-10-06T20:36:26.287Z,79.00
2022-10-06T20:39:12.311Z,79.10
2022-10-06T20:41:39.429Z,79.00
2022-10-06T20:44:06.277Z,79.00
2022-10-06T20:46:34.319Z,79.10
2022-10-06T20:49:04.771Z,79.00
2022-10-06T20:51:32.591Z,79.10
2022-10-06T20:53:59.765Z,79.10
2022-10-06T20:56:26.570Z,79.20
2022-10-06T20:58:53.763Z,79.10
2022-10-06T21:01:21.502Z,79.00
2022-10-06T21:03:50.797Z,79.20
2022-10-06T21:06:17.975Z,79.20
2022-10-06T21:08:45.519Z,79.50
2022-10-06T21:11:13.407Z,79.70
2022-10-06T21:13:40.604Z,79.70
2022-10-06T21:16:07.735Z,80.00
2022-10-06T21:18:34.560Z,80.10
2022-10-06T21:21:07.778Z,80.60
2022-10-06T21:23:38.934Z,80.20
2022-10-06T21:26:07.395Z,80.80
2022-10-06T21:28:34.911Z,80.70
2022-10-06T21:31:05.823Z,80.60
2022-10-06T21:33:33.988Z,80.50
2022-10-06T21:36:01.415Z,80.50
2022-10-06T21:38:28.986Z,80.50
2022-10-06T21:40:58.661Z,80.50
2022-10-06T21:43:25.510Z,80.70
2022-10-06T21:46:10.706Z,80.70
2022-10-06T21:48:39.125Z,80.80
2022-10-06T21:51:05.956Z,80.90
2022-10-06T21:53:32.779Z,81.30
2022-10-06T21:55:59.555Z,81.10
2022-10-06T21:58:26.507Z,81.10
2022-10-06T22:00:57.946Z,81.40
2022-10-06T22:03:24.961Z,81.20
2022-10-06T22:05:51.800Z,81.10
2022-10-06T22:08:18.568Z,81.20
2022-10-06T22:10:45.366Z,81.30
2022-10-06T22:13:12.148Z,81.30
2022-10-06T22:15:39.003Z,81.20
2022-10-06T22:18:05.841Z,81.30
2022-10-06T22:20:34.321Z,81.60
2022-10-06T22:23:04.739Z,81.50
2022-10-06T22:25:31.859Z,81.60
2022-10-06T22:27:58.685Z,81.50
2022-10-06T22:30:25.502Z,81.30
2022-10-06T22:32:52.303Z,81.40
2022-10-06T22:35:19.159Z,81.30
2022-10-06T22:37:46.597Z,81.30
2022-10-06T22:40:13.538Z,82.10
2022-10-06T22:42:40.400Z,81.30
2022-10-06T22:45:07.294Z,81.10
2022-10-06T22:47:34.094Z,81.00
2022-10-06T22:50:00.909Z,80.70
2022-10-06T22:52:27.725Z,80.70
2022-10-06T22:54:54.543Z,80.50
2022-10-06T22:57:21.337Z,80.60
2022-10-06T22:59:48.095Z,80.60
2022-10-06T23:02:15.049Z,80.50
2022-10-06T23:04:41.832Z,80.80
2022-10-06T23:07:08.755Z,80.60
2022-10-06T23:09:36.683Z,80.70
2022-10-06T23:12:03.542Z,80.60
2022-10-06T23:14:30.346Z,80.50
2022-10-06T23:16:57.228Z,80.50
2022-10-06T23:19:24.106Z,80.30
2022-10-06T23:21:50.923Z,80.20
2022-10-06T23:24:17.966Z,80.10
2022-10-06T23:26:44.865Z,80.10
2022-10-06T23:29:12.282Z,80.10
2022-10-06T23:31:39.149Z,80.20
2022-10-06T23:34:06.004Z,80.10
2022-10-06T23:36:32.852Z,80.20
2022-10-06T23:38:59.861Z,80.00
2022-10-06T23:41:26.642Z,79.90
2022-10-06T23:43:53.430Z,80.00
2022-10-06T23:46:20.324Z,79.80
2022-10-06T23:48:47.181Z,79.80
2022-10-06T23:51:15.401Z,79.80
2022-10-06T23:53:42.976Z,79.90
2022-10-06T23:56:10.719Z,80.00
2022-10-06T23:58:37.541Z,80.00
